createdAt,value
2017-11-12T07:29:21.043Z,11.83
2017-11-12T07:30:01.589Z,11.79
2017-11-12T07:30:42.133Z,11.88
2017-11-12T07:31:22.703Z,11.88
2017-11-12T07:32:03.233Z,11.98
2017-11-12T07:32:43.791Z,12.02
2017-11-12T07:33:24.306Z,11.91
2017-11-12T07:34:04.859Z,11.91
2017-11-12T07:34:45.445Z,11.9
2017-11-12T07:35:25.893Z,11.79
2017-11-12T07:36:06.455Z,11.82
2017-11-12T07:36:46.995Z,11.8
2017-11-12T07:37:27.527Z,11.83
2017-11-12T07:38:08.072Z,11.75
2017-11-12T07:38:48.605Z,11.82
2017-11-12T07:39:29.149Z,11.86
2017-11-12T07:40:09.682Z,11.86
2017-11-12T07:40:50.180Z,11.9
2017-11-12T07:41:30.772Z,11.98
2017-11-12T07:42:11.268Z,11.82
2017-11-12T07:42:51.788Z,11.9
2017-11-12T07:43:32.324Z,11.91
2017-11-12T07:44:12.916Z,11.86
2017-11-12T07:44:53.441Z,11.85
2017-11-12T07:45:33.984Z,11.91
2017-11-12T07:46:14.535Z,11.88
2017-11-12T07:46:55.098Z,11.82
2017-11-12T07:47:35.662Z,11.82
2017-11-12T07:48:16.161Z,11.76
2017-11-12T07:48:56.777Z,11.73
2017-11-12T07:49:37.336Z,11.82
2017-11-12T07:50:17.869Z,11.76
2017-11-12T07:50:58.423Z,11.65
2017-11-12T07:51:38.959Z,11.6
2017-11-12T07:52:19.519Z,11.65
2017-11-12T07:53:00.166Z,11.6
2017-11-12T07:53:41.352Z,11.75
2017-11-12T07:54:21.172Z,11.69
2017-11-12T07:55:01.694Z,11.7
2017-11-12T07:55:42.267Z,11.58
2017-11-12T07:56:22.853Z,11.64
2017-11-12T07:57:03.389Z,11.61
2017-11-12T07:57:43.924Z,11.57
2017-11-12T07:58:24.519Z,11.64
2017-11-12T07:59:04.979Z,11.55
2017-11-12T07:59:45.601Z,11.52
2017-11-12T08:00:26.184Z,11.7
2017-11-12T08:01:06.774Z,11.69
2017-11-12T08:01:47.236Z,11.69
2017-11-12T08:02:27.749Z,11.72
2017-11-12T08:03:08.342Z,11.82
2017-11-12T08:03:48.958Z,11.72
2017-11-12T08:04:29.468Z,11.8
2017-11-12T08:05:10.073Z,11.82
2017-11-12T08:05:50.646Z,11.8
2017-11-12T08:06:31.339Z,11.8
2017-11-12T08:07:11.893Z,11.75
2017-11-12T08:07:52.433Z,11.83
2017-11-12T08:08:33.014Z,11.78
2017-11-12T08:09:13.537Z,11.78
2017-11-12T08:09:54.078Z,11.82
2017-11-12T08:10:34.635Z,11.86
2017-11-12T08:11:15.164Z,11.94
2017-11-12T08:11:55.706Z,11.9
2017-11-12T08:12:36.182Z,11.85
2017-11-12T08:13:16.741Z,11.95
2017-11-12T08:13:57.289Z,11.99
2017-11-12T08:14:37.876Z,11.91
2017-11-12T08:15:18.419Z,11.96
2017-11-12T08:15:58.935Z,11.98
2017-11-12T08:16:39.498Z,11.95
2017-11-12T08:17:20.041Z,11.98
2017-11-12T08:18:00.574Z,11.91
2017-11-12T08:18:41.124Z,11.96
2017-11-12T08:19:21.678Z,11.91
2017-11-12T08:20:02.205Z,11.76
2017-11-12T08:20:42.736Z,11.79
2017-11-12T08:21:23.339Z,11.83
2017-11-12T08:22:03.934Z,11.85
2017-11-12T08:22:44.519Z,11.88
2017-11-12T08:23:24.988Z,11.88
2017-11-12T08:24:05.568Z,11.95
2017-11-12T08:24:46.118Z,11.95
2017-11-12T08:25:26.631Z,11.86
2017-11-12T08:26:07.175Z,11.88
2017-11-12T08:26:47.736Z,11.82
2017-11-12T08:27:28.290Z,11.95
2017-11-12T08:28:08.849Z,11.99
2017-11-12T08:28:49.365Z,12.04
2017-11-12T08:29:29.933Z,11.96
2017-11-12T08:30:10.402Z,11.96
2017-11-12T08:30:50.981Z,11.96
2017-11-12T08:31:31.525Z,11.91
2017-11-12T08:32:12.088Z,11.86
2017-11-12T08:32:52.582Z,11.95
2017-11-12T08:33:33.125Z,11.98
2017-11-12T08:34:13.741Z,11.9
2017-11-12T08:34:54.250Z,11.86
2017-11-12T08:35:34.757Z,11.88
2017-11-12T08:36:15.380Z,11.78
2017-11-12T08:36:55.900Z,11.79
2017-11-12T08:37:36.390Z,11.82
2017-11-12T08:38:16.920Z,11.78
2017-11-12T08:38:57.486Z,11.76
2017-11-12T08:39:38.048Z,11.82
2017-11-12T08:40:18.571Z,11.76
2017-11-12T08:40:59.105Z,11.78
2017-11-12T08:41:39.758Z,11.67
2017-11-12T08:42:20.181Z,11.69
2017-11-12T08:43:00.731Z,11.62
2017-11-12T08:43:41.340Z,11.72
2017-11-12T08:44:21.811Z,11.7
2017-11-12T08:45:02.498Z,11.62
2017-11-12T08:45:42.983Z,11.85
2017-11-12T08:46:23.493Z,11.73
2017-11-12T08:47:04.082Z,11.69
2017-11-12T08:47:44.647Z,11.73
2017-11-12T08:48:25.111Z,11.73
2017-11-12T08:49:05.715Z,11.75
2017-11-12T08:49:46.223Z,11.65
2017-11-12T08:50:26.741Z,11.7
2017-11-12T08:51:07.283Z,11.64
2017-11-12T08:51:47.781Z,11.65
2017-11-12T08:52:28.323Z,11.69
2017-11-12T08:53:08.892Z,11.73
2017-11-12T08:53:49.405Z,11.58
2017-11-12T08:54:29.975Z,11.7
2017-11-12T08:55:10.599Z,11.72
2017-11-12T08:55:51.091Z,11.78
2017-11-12T08:56:31.614Z,11.79
2017-11-12T08:57:12.177Z,11.75
2017-11-12T08:57:52.798Z,11.65
2017-11-12T08:58:33.285Z,11.65
2017-11-12T08:59:13.904Z,11.72
2017-11-12T08:59:54.529Z,11.76
2017-11-12T09:00:34.973Z,11.78
2017-11-12T09:01:15.480Z,11.73
2017-11-12T09:01:56.009Z,11.8
2017-11-12T09:02:36.576Z,11.8
2017-11-12T09:03:17.082Z,11.78
2017-11-12T09:03:57.646Z,11.76
2017-11-12T09:04:38.195Z,11.86
2017-11-12T09:05:18.681Z,11.82
2017-11-12T09:05:59.203Z,11.73
2017-11-12T09:06:39.754Z,11.7
2017-11-12T09:07:20.280Z,11.6
2017-11-12T09:08:00.839Z,11.67
2017-11-12T09:08:41.383Z,11.78
2017-11-12T09:09:21.960Z,11.75
2017-11-12T09:10:02.486Z,11.75
2017-11-12T09:10:43.064Z,11.8
2017-11-12T09:11:23.615Z,11.79
2017-11-12T09:12:04.115Z,11.76
2017-11-12T09:12:44.703Z,11.64
2017-11-12T09:13:25.237Z,11.55
2017-11-12T09:14:05.814Z,11.62
2017-11-12T09:14:46.355Z,11.69
2017-11-12T09:15:26.918Z,11.67
2017-11-12T09:16:07.452Z,11.57
2017-11-12T09:16:47.950Z,11.55
2017-11-12T09:17:28.544Z,11.73
2017-11-12T09:18:09.092Z,11.73
2017-11-12T09:18:49.598Z,11.72
2017-11-12T09:19:30.138Z,11.75
2017-11-12T09:20:10.744Z,11.78
2017-11-12T09:20:51.316Z,11.78
2017-11-12T09:21:31.846Z,11.79
2017-11-12T09:22:12.369Z,11.64
2017-11-12T09:22:52.901Z,11.8
2017-11-12T09:23:33.487Z,11.83
2017-11-12T09:24:13.998Z,11.67
2017-11-12T09:24:54.542Z,11.64
2017-11-12T09:25:35.147Z,11.65
2017-11-12T09:26:15.629Z,11.73
2017-11-12T09:26:56.175Z,11.73
2017-11-12T09:27:36.715Z,11.83
2017-11-12T09:28:17.255Z,11.73
2017-11-12T09:28:57.773Z,11.83
2017-11-12T09:29:38.398Z,11.78
2017-11-12T09:30:18.864Z,11.79
2017-11-12T09:30:59.403Z,11.73
2017-11-12T09:31:39.965Z,11.75
2017-11-12T09:32:20.505Z,11.82
2017-11-12T09:33:01.049Z,11.82
2017-11-12T09:33:41.685Z,11.83
2017-11-12T09:34:22.235Z,11.86
2017-11-12T09:35:02.810Z,11.76
2017-11-12T09:35:43.342Z,11.78
2017-11-12T09:36:23.948Z,11.73
2017-11-12T09:37:04.703Z,11.72
2017-11-12T09:37:45.089Z,11.76
2017-11-12T09:38:25.778Z,11.69
2017-11-12T09:39:06.433Z,11.61
2017-11-12T09:39:46.934Z,11.82
2017-11-12T09:40:27.503Z,11.64
2017-11-12T09:41:08.107Z,11.69
2017-11-12T09:41:48.640Z,11.76
2017-11-12T09:42:29.269Z,11.62
2017-11-12T09:43:09.756Z,11.79
2017-11-12T09:43:50.340Z,11.8
2017-11-12T09:44:30.881Z,11.86
2017-11-12T09:45:11.432Z,11.83
2017-11-12T09:45:51.912Z,11.82
2017-11-12T09:46:33.043Z,11.76
2017-11-12T09:47:14.619Z,11.83
2017-11-12T09:47:56.145Z,11.85
2017-11-12T09:48:37.829Z,11.82
2017-11-12T09:49:19.559Z,11.76
2017-11-12T09:50:00.982Z,11.86
2017-11-12T09:50:42.518Z,11.88
2017-11-12T09:51:24.105Z,11.83
2017-11-12T09:52:05.643Z,11.76
2017-11-12T09:52:47.571Z,11.82
2017-11-12T09:53:27.722Z,11.7
2017-11-12T09:54:08.371Z,11.72
2017-11-12T09:54:48.913Z,11.75
2017-11-12T09:55:29.427Z,11.72
2017-11-12T09:56:09.985Z,11.69
2017-11-12T09:56:50.567Z,11.73
2017-11-12T09:57:31.175Z,11.86
2017-11-12T09:58:12.602Z,11.8
2017-11-12T09:58:53.309Z,11.73
2017-11-12T09:59:33.892Z,11.73
2017-11-12T10:00:14.366Z,11.83
2017-11-12T10:00:54.934Z,11.83
2017-11-12T10:01:35.448Z,11.73
2017-11-12T10:02:15.972Z,11.8
2017-11-12T10:02:56.671Z,11.76
2017-11-12T10:03:37.263Z,11.73
2017-11-12T10:04:17.774Z,11.75
2017-11-12T10:04:58.297Z,11.7
2017-11-12T10:05:38.847Z,11.76
2017-11-12T10:06:19.580Z,11.83
2017-11-12T10:07:00.085Z,11.83
2017-11-12T10:07:41.385Z,11.78
2017-11-12T10:08:21.260Z,11.83
2017-11-12T10:09:02.014Z,11.86
2017-11-12T10:09:42.561Z,11.86
2017-11-12T10:10:23.125Z,11.98
2017-11-12T10:11:03.958Z,11.85
2017-11-12T10:11:44.492Z,11.86
2017-11-12T10:12:25.050Z,12.02
2017-11-12T10:13:05.610Z,11.95
2017-11-12T10:13:46.251Z,11.86
2017-11-12T10:14:26.769Z,11.95
2017-11-12T10:15:07.431Z,11.88
2017-11-12T10:15:47.961Z,11.82
2017-11-12T10:16:28.502Z,11.79
2017-11-12T10:17:09.100Z,11.88
2017-11-12T10:17:49.613Z,11.86
2017-11-12T10:18:30.115Z,11.91
2017-11-12T10:19:10.626Z,11.82
2017-11-12T10:19:51.179Z,11.75
2017-11-12T10:20:31.694Z,11.8
2017-11-12T10:21:12.425Z,11.86
2017-11-12T10:21:53.063Z,11.85
2017-11-12T10:22:33.579Z,11.82
2017-11-12T10:23:14.085Z,11.91
2017-11-12T10:23:54.689Z,11.79
2017-11-12T10:24:35.256Z,11.94
2017-11-12T10:25:15.844Z,11.96
2017-11-12T10:25:56.453Z,11.88
2017-11-12T10:26:37.030Z,11.83
2017-11-12T10:27:17.575Z,11.88
2017-11-12T10:27:58.119Z,11.91
2017-11-12T10:28:38.904Z,11.9
2017-11-12T10:29:19.443Z,11.88
2017-11-12T10:29:59.994Z,11.98
2017-11-12T10:30:40.591Z,11.86
2017-11-12T10:31:21.126Z,11.96
2017-11-12T10:32:01.660Z,11.91
2017-11-12T10:32:42.178Z,11.82
2017-11-12T10:33:22.689Z,11.82
2017-11-12T10:34:03.289Z,11.79
2017-11-12T10:34:43.833Z,11.75
2017-11-12T10:35:24.565Z,11.9
2017-11-12T10:36:05.277Z,11.88
2017-11-12T10:36:45.819Z,11.82
2017-11-12T10:37:26.360Z,11.91
2017-11-12T10:38:06.951Z,11.98
2017-11-12T10:38:47.505Z,11.85
2017-11-12T10:39:28.038Z,11.82
2017-11-12T10:40:08.708Z,11.85
2017-11-12T10:40:49.265Z,11.95
2017-11-12T10:41:30.022Z,11.91
2017-11-12T10:42:10.595Z,11.99
2017-11-12T10:42:51.092Z,11.95
2017-11-12T10:43:31.671Z,11.98
2017-11-12T10:44:12.387Z,11.99
2017-11-12T10:44:52.930Z,11.95
2017-11-12T10:45:33.466Z,11.95
2017-11-12T10:46:13.941Z,12.02
2017-11-12T10:46:54.520Z,11.95
2017-11-12T10:47:35.111Z,12.05
2017-11-12T10:48:15.688Z,12.12
2017-11-12T10:48:56.260Z,12.09
2017-11-12T10:49:36.929Z,12.1
2017-11-12T10:50:17.630Z,12.2
2017-11-12T10:50:58.202Z,12.17
2017-11-12T10:51:38.762Z,12.16
2017-11-12T10:52:19.266Z,12.14
2017-11-12T10:52:59.868Z,12.27
2017-11-12T10:53:40.435Z,12.21
2017-11-12T10:54:21.019Z,12.17
2017-11-12T10:55:01.555Z,12.12
2017-11-12T10:55:42.146Z,12.16
2017-11-12T10:56:22.744Z,12.07
2017-11-12T10:57:03.263Z,11.95
2017-11-12T10:57:43.808Z,11.98
2017-11-12T10:58:24.351Z,11.95
2017-11-12T10:59:04.870Z,11.91
2017-11-12T10:59:45.451Z,11.95
2017-11-12T11:00:26.019Z,11.94
2017-11-12T11:01:06.533Z,11.86
2017-11-12T11:01:47.168Z,11.88
2017-11-12T11:02:27.741Z,11.8
2017-11-12T11:03:08.234Z,11.7
2017-11-12T11:03:48.785Z,11.64
2017-11-12T11:04:29.358Z,11.61
2017-11-12T11:05:09.875Z,11.52
2017-11-12T11:05:50.452Z,11.6
2017-11-12T11:06:30.898Z,11.52
2017-11-12T11:07:11.468Z,11.42
2017-11-12T11:07:52.023Z,11.36
2017-11-12T11:08:32.549Z,11.17
2017-11-12T11:09:13.183Z,11.19
2017-11-12T11:09:53.702Z,11.14
2017-11-12T11:10:34.361Z,11.1
2017-11-12T11:11:14.792Z,11.22
2017-11-12T11:11:55.331Z,11.14
2017-11-12T11:12:36.032Z,11.06
2017-11-12T11:13:16.548Z,10.91
2017-11-12T11:13:57.108Z,10.92
2017-11-12T11:14:37.682Z,10.89
2017-11-12T11:15:18.263Z,10.82
2017-11-12T11:15:58.826Z,10.99
2017-11-12T11:16:39.352Z,10.94
2017-11-12T11:17:19.936Z,10.81
2017-11-12T11:18:00.489Z,10.76
2017-11-12T11:18:40.966Z,10.85
2017-11-12T11:19:21.564Z,10.81
2017-11-12T11:20:02.184Z,10.81
2017-11-12T11:20:42.736Z,10.79
2017-11-12T11:21:23.228Z,10.78
2017-11-12T11:22:03.790Z,10.73
2017-11-12T11:22:44.346Z,10.73
2017-11-12T11:23:24.878Z,10.82
2017-11-12T11:24:05.412Z,10.84
2017-11-12T11:24:46.071Z,10.85
2017-11-12T11:25:26.552Z,10.85
2017-11-12T11:26:07.166Z,10.84
2017-11-12T11:26:47.868Z,10.81
2017-11-12T11:27:28.445Z,10.81
2017-11-12T11:28:08.990Z,10.82
2017-11-12T11:28:49.718Z,10.99
2017-11-12T11:29:30.160Z,10.78
2017-11-12T11:30:10.701Z,10.68
2017-11-12T11:30:51.253Z,10.82
2017-11-12T11:31:31.865Z,10.7
2017-11-12T11:32:12.392Z,10.56
2017-11-12T11:32:52.985Z,10.79
2017-11-12T11:33:33.540Z,10.67
2017-11-12T11:34:14.009Z,10.82
2017-11-12T11:34:54.690Z,10.88
2017-11-12T11:35:35.258Z,10.86
2017-11-12T11:36:15.851Z,11.09
2017-11-12T11:36:56.372Z,10.94
2017-11-12T11:37:37.009Z,10.94
2017-11-12T11:38:17.583Z,10.94
2017-11-12T11:38:58.136Z,10.94
2017-11-12T11:39:38.750Z,10.94
2017-11-12T11:40:19.302Z,10.91
2017-11-12T11:40:59.762Z,10.92
2017-11-12T11:41:40.291Z,11
2017-11-12T11:42:20.887Z,11.03
2017-11-12T11:43:01.437Z,10.94
2017-11-12T11:43:41.918Z,10.85
2017-11-12T11:44:22.584Z,10.81
2017-11-12T11:45:03.108Z,10.79
2017-11-12T11:45:43.662Z,10.88
2017-11-12T11:46:24.194Z,10.79
2017-11-12T11:47:04.726Z,10.76
2017-11-12T11:47:45.294Z,10.76
2017-11-12T11:48:25.875Z,10.7
2017-11-12T11:49:06.417Z,10.66
2017-11-12T11:49:46.985Z,10.63
2017-11-12T11:50:27.517Z,10.61
2017-11-12T11:51:08.074Z,10.4
2017-11-12T11:51:48.604Z,10.29
2017-11-12T11:52:29.354Z,10.25
2017-11-12T11:53:09.879Z,10.18
2017-11-12T11:53:50.448Z,10.07
2017-11-12T11:54:31.146Z,10.08
2017-11-12T11:55:11.806Z,10.15
2017-11-12T11:55:52.385Z,9.99
2017-11-12T11:56:33.106Z,9.79
2017-11-12T11:57:13.645Z,10.01
2017-11-12T11:57:54.180Z,9.83
2017-11-12T11:58:34.753Z,9.83
2017-11-12T11:59:15.346Z,9.72
2017-11-12T11:59:55.901Z,9.71
2017-11-12T12:00:36.839Z,9.66
2017-11-12T12:01:17.702Z,9.48
2017-11-12T12:01:58.316Z,9.39
2017-11-12T12:02:38.865Z,9.48
2017-11-12T12:03:19.519Z,9.39
2017-11-12T12:04:00.070Z,9.47
2017-11-12T12:04:40.589Z,9.51
2017-11-12T12:05:21.272Z,9.51
2017-11-12T12:06:01.837Z,9.36
2017-11-12T12:06:42.385Z,9.39
2017-11-12T12:07:22.960Z,9.4
2017-11-12T12:08:03.511Z,9.33
2017-11-12T12:08:44.076Z,9.28
2017-11-12T12:09:24.706Z,9.31
2017-11-12T12:10:05.259Z,8.98
2017-11-12T12:10:45.839Z,9.02
2017-11-12T12:11:26.369Z,8.92
2017-11-12T12:12:06.933Z,9.18
2017-11-12T12:12:47.459Z,9.14
2017-11-12T12:13:28.020Z,9.14
2017-11-12T12:14:08.620Z,9.26
2017-11-12T12:14:49.125Z,9.33
2017-11-12T12:15:29.652Z,9.35
2017-11-12T12:16:10.205Z,9.5
2017-11-12T12:16:50.779Z,9.51
2017-11-12T12:17:31.357Z,9.53
2017-11-12T12:18:11.940Z,9.33
2017-11-12T12:18:52.445Z,9.42
2017-11-12T12:19:33.043Z,9.38
2017-11-12T12:20:13.640Z,9.6
2017-11-12T12:20:54.174Z,9.54
2017-11-12T12:21:34.643Z,9.54
2017-11-12T12:22:15.207Z,9.38
2017-11-12T12:22:55.758Z,9.35
2017-11-12T12:23:36.322Z,9.38
2017-11-12T12:24:16.914Z,9.38
2017-11-12T12:24:57.500Z,9.28
2017-11-12T12:25:38.017Z,9.14
2017-11-12T12:26:18.630Z,9.29
2017-11-12T12:26:59.256Z,9.2
2017-11-12T12:27:39.804Z,9.05
2017-11-12T12:28:20.315Z,9.23
2017-11-12T12:29:00.866Z,9.24
2017-11-12T12:29:41.461Z,9.43
2017-11-12T12:30:22.079Z,9.48
2017-11-12T12:31:02.656Z,9.43
2017-11-12T12:31:43.189Z,9.39
2017-11-12T12:32:23.734Z,9.38
2017-11-12T12:33:04.321Z,9.29
2017-11-12T12:33:44.872Z,9.33
2017-11-12T12:34:27.151Z,9.53
2017-11-12T12:35:07.751Z,9.57
2017-11-12T12:35:48.348Z,9.66
2017-11-12T12:36:28.985Z,9.58
2017-11-12T12:37:09.565Z,9.68
2017-11-12T12:37:50.525Z,9.74
2017-11-12T12:38:31.009Z,9.68
2017-11-12T12:39:11.529Z,9.71
2017-11-12T12:39:52.398Z,9.75
2017-11-12T12:40:32.956Z,9.69
2017-11-12T12:41:13.550Z,9.71
2017-11-12T12:41:54.153Z,9.78
2017-11-12T12:42:34.828Z,9.65
2017-11-12T12:43:15.381Z,9.76
2017-11-12T12:43:56.000Z,9.66
2017-11-12T12:44:36.710Z,9.68
2017-11-12T12:45:17.384Z,9.68
2017-11-12T12:45:58.075Z,9.72
2017-11-12T12:46:38.560Z,9.74
2017-11-12T12:47:19.103Z,9.81
2017-11-12T12:47:59.627Z,9.71
2017-11-12T12:48:40.238Z,9.68
2017-11-12T12:49:20.756Z,9.71
2017-11-12T12:50:01.386Z,9.68
2017-11-12T12:50:41.922Z,9.86
2017-11-12T12:51:22.490Z,9.78
2017-11-12T12:52:03.157Z,9.71
2017-11-12T12:52:43.665Z,9.75
2017-11-12T12:53:24.201Z,9.6
2017-11-12T12:54:04.721Z,9.66
2017-11-12T12:54:45.285Z,9.76
2017-11-12T12:55:25.861Z,9.78
2017-11-12T12:56:06.460Z,9.58
2017-11-12T12:56:47.041Z,9.57
2017-11-12T12:57:27.572Z,9.6
2017-11-12T12:58:08.104Z,9.68
2017-11-12T12:58:48.681Z,9.75
2017-11-12T12:59:29.206Z,9.66
2017-11-12T13:00:09.780Z,9.71
2017-11-12T13:00:50.332Z,9.61
2017-11-12T13:01:30.864Z,9.68
2017-11-12T13:02:11.505Z,9.66
2017-11-12T13:02:52.007Z,9.6
2017-11-12T13:03:32.510Z,9.6
2017-11-12T13:04:13.200Z,9.56
2017-11-12T13:04:53.752Z,9.5
2017-11-12T13:05:34.323Z,9.46
2017-11-12T13:06:14.994Z,9.39
2017-11-12T13:06:55.564Z,9.53
2017-11-12T13:07:36.153Z,9.42
2017-11-12T13:08:16.761Z,9.39
2017-11-12T13:08:57.358Z,9.35
2017-11-12T13:09:37.881Z,9.29
2017-11-12T13:10:18.457Z,9.29
2017-11-12T13:10:58.977Z,9.39
2017-11-12T13:11:39.540Z,9.43
2017-11-12T13:12:20.104Z,9.31
2017-11-12T13:13:00.680Z,9.29
2017-11-12T13:13:41.187Z,9.26
2017-11-12T13:14:21.727Z,9.23
2017-11-12T13:15:02.383Z,8.99
2017-11-12T13:15:42.837Z,9.08
2017-11-12T13:16:23.417Z,9.08
2017-11-12T13:17:03.991Z,9.11
2017-11-12T13:17:44.595Z,8.96
2017-11-12T13:18:25.377Z,8.89
2017-11-12T13:19:05.951Z,9.08
2017-11-12T13:19:46.588Z,9.04
2017-11-12T13:20:27.097Z,8.99
2017-11-12T13:21:07.781Z,9.01
2017-11-12T13:21:48.338Z,8.86
2017-11-12T13:22:28.905Z,8.8
2017-11-12T13:23:09.452Z,8.81
2017-11-12T13:23:50.025Z,8.94
2017-11-12T13:24:30.573Z,8.83
2017-11-12T13:25:11.079Z,8.95
2017-11-12T13:25:51.676Z,8.87
2017-11-12T13:26:32.148Z,9.01
2017-11-12T13:27:12.733Z,9.05
2017-11-12T13:27:53.278Z,8.99
2017-11-12T13:28:33.807Z,9.17
2017-11-12T13:29:14.405Z,9.08
2017-11-12T13:29:54.950Z,9.13
2017-11-12T13:30:35.595Z,9.04
2017-11-12T13:31:16.144Z,9.13
2017-11-12T13:31:56.709Z,9.14
2017-11-12T13:32:37.319Z,9.26
2017-11-12T13:33:17.884Z,9.1
2017-11-12T13:33:58.515Z,9.11
2017-11-12T13:34:39.135Z,9.11
2017-11-12T13:35:19.666Z,9.04
2017-11-12T13:36:00.186Z,8.98
2017-11-12T13:36:40.770Z,9.17
2017-11-12T13:37:21.269Z,9.15
2017-11-12T13:38:01.877Z,9.08
2017-11-12T13:38:42.443Z,8.95
2017-11-12T13:39:22.982Z,9.05
2017-11-12T13:40:03.552Z,8.89
2017-11-12T13:40:44.089Z,8.84
2017-11-12T13:41:24.655Z,8.99
2017-11-12T13:42:05.189Z,9.01
2017-11-12T13:42:45.749Z,9.04
2017-11-12T13:43:26.343Z,9.18
2017-11-12T13:44:06.924Z,9.21
2017-11-12T13:44:47.503Z,9.26
2017-11-12T13:45:28.059Z,9.13
2017-11-12T13:46:08.747Z,9.14
2017-11-12T13:46:49.549Z,9.23
2017-11-12T13:47:30.102Z,9.1
2017-11-12T13:48:10.730Z,9.14
2017-11-12T13:48:51.232Z,9.13
2017-11-12T13:49:31.790Z,9.11
2017-11-12T13:50:12.341Z,9.14
2017-11-12T13:50:52.952Z,9.08
2017-11-12T13:51:33.496Z,9.04
2017-11-12T13:52:14.221Z,9.17
2017-11-12T13:52:54.818Z,9.13
2017-11-12T13:53:35.407Z,9.14
2017-11-12T13:54:15.965Z,9.01
2017-11-12T13:54:56.864Z,8.98
2017-11-12T13:55:37.786Z,9.14
2017-11-12T13:56:18.381Z,9.14
2017-11-12T13:56:58.975Z,9.11
2017-11-12T13:57:39.521Z,9.11
2017-11-12T13:58:20.021Z,9.02
2017-11-12T13:59:00.611Z,9.05
2017-11-12T13:59:41.169Z,9.14
2017-11-12T14:00:21.813Z,8.94
2017-11-12T14:01:02.428Z,8.84
2017-11-12T14:01:43.032Z,8.86
2017-11-12T14:02:23.473Z,9.04
2017-11-12T14:03:03.982Z,9.15
2017-11-12T14:03:44.568Z,8.99
2017-11-12T14:04:25.122Z,9.01
2017-11-12T14:05:05.736Z,8.95
2017-11-12T14:05:46.255Z,9.01
2017-11-12T14:06:26.870Z,9.02
2017-11-12T14:07:07.420Z,8.98
2017-11-12T14:07:47.961Z,8.92
2017-11-12T14:08:28.491Z,9.05
2017-11-12T14:09:09.055Z,9.13
2017-11-12T14:09:49.623Z,8.96
2017-11-12T14:10:30.108Z,8.99
2017-11-12T14:11:10.645Z,9.02
2017-11-12T14:11:51.242Z,9.04
2017-11-12T14:12:31.922Z,9.02
2017-11-12T14:13:12.490Z,8.92
2017-11-12T14:13:53.014Z,8.84
2017-11-12T14:14:33.542Z,8.96
2017-11-12T14:15:14.083Z,8.84
2017-11-12T14:15:54.748Z,9.01
2017-11-12T14:16:35.301Z,8.83
2017-11-12T14:17:18.699Z,8.8
2017-11-12T14:17:59.183Z,8.98
2017-11-12T14:18:39.767Z,9.01
2017-11-12T14:19:20.415Z,9.14
2017-11-12T14:20:00.996Z,9.11
2017-11-12T14:20:41.548Z,9.21
2017-11-12T14:21:22.097Z,9.29
2017-11-12T14:22:02.690Z,9.2
2017-11-12T14:22:43.497Z,9.35
2017-11-12T14:23:24.038Z,9.18
2017-11-12T14:24:04.530Z,9.26
2017-11-12T14:24:45.196Z,9.21
2017-11-12T14:25:25.813Z,9.31
2017-11-12T14:26:06.256Z,9.28
2017-11-12T14:26:46.824Z,9.21
2017-11-12T14:27:27.422Z,9.29
2017-11-12T14:28:08.339Z,9.43
2017-11-12T14:28:48.901Z,9.36
2017-11-12T14:29:29.421Z,9.39
2017-11-12T14:30:10.072Z,9.39
2017-11-12T14:30:50.700Z,9.39
2017-11-12T14:31:31.256Z,9.29
2017-11-12T14:32:11.885Z,9.26
2017-11-12T14:32:52.489Z,9.24
2017-11-12T14:33:35.999Z,9.21
2017-11-12T14:34:16.814Z,9.26
2017-11-12T14:34:57.334Z,9.2
2017-11-12T14:35:38.127Z,9.2
2017-11-12T14:36:18.809Z,9.04
2017-11-12T14:36:59.281Z,8.91
2017-11-12T14:37:40.016Z,8.91
2017-11-12T14:38:20.559Z,8.92
2017-11-12T14:39:01.199Z,8.92
2017-11-12T14:39:41.746Z,8.92
2017-11-12T14:40:22.458Z,8.94
2017-11-12T14:41:02.924Z,9.05
2017-11-12T14:41:43.419Z,9.17
2017-11-12T14:42:24.063Z,9.11
2017-11-12T14:43:04.819Z,9.15
2017-11-12T14:43:45.368Z,9.26
2017-11-12T14:44:25.953Z,9.26
2017-11-12T14:45:06.515Z,9.23
2017-11-12T14:45:47.112Z,9.33
2017-11-12T14:46:27.736Z,9.31
2017-11-12T14:47:08.313Z,9.24
2017-11-12T14:47:48.967Z,9.36
2017-11-12T14:48:29.445Z,9.14
2017-11-12T14:49:10.193Z,9.14
2017-11-12T14:49:50.702Z,9.11
2017-11-12T14:50:31.262Z,9.17
2017-11-12T14:51:11.941Z,9.28
2017-11-12T14:51:52.765Z,9.35
2017-11-12T14:52:33.198Z,9.35
2017-11-12T14:53:13.731Z,9.43
2017-11-12T14:53:54.462Z,9.43
2017-11-12T14:54:35.046Z,9.13
2017-11-12T14:55:15.763Z,9.23
2017-11-12T14:55:56.447Z,9.36
2017-11-12T14:56:36.966Z,9.42
2017-11-12T14:57:17.516Z,9.35
2017-11-12T14:57:58.061Z,9.43
2017-11-12T14:58:38.677Z,9.42
2017-11-12T14:59:19.284Z,9.53
2017-11-12T14:59:59.826Z,9.39
2017-11-12T15:00:40.409Z,9.36
2017-11-12T15:01:20.932Z,9.36
2017-11-12T15:02:01.459Z,9.38
2017-11-12T15:02:42.079Z,9.46
2017-11-12T15:03:22.666Z,9.4
2017-11-12T15:04:03.355Z,9.42
2017-11-12T15:04:43.930Z,9.39
2017-11-12T15:05:24.448Z,9.39
2017-11-12T15:06:05.136Z,9.53
2017-11-12T15:06:45.926Z,9.47
2017-11-12T15:07:26.446Z,9.46
2017-11-12T15:08:06.983Z,9.6
2017-11-12T15:08:47.619Z,9.57
2017-11-12T15:09:28.166Z,9.53
2017-11-12T15:10:08.843Z,9.39
2017-11-12T15:10:49.345Z,9.4
2017-11-12T15:11:29.941Z,9.43
2017-11-12T15:12:10.530Z,9.35
2017-11-12T15:12:51.189Z,9.38
2017-11-12T15:13:31.803Z,9.29
2017-11-12T15:14:12.518Z,9.24
2017-11-12T15:14:53.148Z,9.28
2017-11-12T15:15:33.735Z,9.21
2017-11-12T15:16:14.511Z,9.13
2017-11-12T15:16:54.953Z,9.11
2017-11-12T15:17:35.563Z,9.14
2017-11-12T15:18:16.200Z,9.26
2017-11-12T15:18:57.025Z,9.32
2017-11-12T15:19:37.707Z,9.38
2017-11-12T15:20:18.469Z,9.53
2017-11-12T15:20:59.124Z,9.39
2017-11-12T15:21:39.680Z,9.36
2017-11-12T15:22:20.191Z,9.38
2017-11-12T15:23:00.894Z,9.46
2017-11-12T15:23:41.332Z,9.5
2017-11-12T15:24:21.984Z,9.53
2017-11-12T15:25:02.686Z,9.38
2017-11-12T15:25:43.289Z,9.38
2017-11-12T15:26:24.267Z,9.26
2017-11-12T15:27:04.791Z,9.33
2017-11-12T15:27:45.315Z,9.13
2017-11-12T15:28:26.115Z,9.13
2017-11-12T15:29:07.010Z,9.08
2017-11-12T15:29:47.727Z,8.99
2017-11-12T15:30:28.598Z,9.08
2017-11-12T15:31:09.234Z,8.95
2017-11-12T15:31:49.859Z,8.89
2017-11-12T15:32:30.833Z,8.86
2017-11-12T15:33:11.574Z,8.84
2017-11-12T15:33:54.129Z,8.96
2017-11-12T15:34:34.724Z,9.08
2017-11-12T15:35:15.314Z,8.96
2017-11-12T15:35:55.805Z,9.04
2017-11-12T15:36:36.461Z,8.96
2017-11-12T15:37:17.555Z,8.96
2017-11-12T15:37:58.170Z,9.04
2017-11-12T15:38:38.792Z,9.04
2017-11-12T15:39:19.383Z,8.94
2017-11-12T15:40:00.241Z,8.96
2017-11-12T15:40:40.835Z,9.04
2017-11-12T15:41:21.340Z,9.01
2017-11-12T15:42:02.003Z,9.02
2017-11-12T15:42:42.594Z,9.17
2017-11-12T15:43:23.041Z,9.14
2017-11-12T15:44:03.607Z,9.14
2017-11-12T15:44:44.453Z,9.15
2017-11-12T15:45:25.036Z,9.05
2017-11-12T15:46:05.647Z,8.87
2017-11-12T15:46:46.324Z,8.94
2017-11-12T15:47:27.233Z,8.95
2017-11-12T15:48:07.583Z,8.96
2017-11-12T15:48:49.192Z,8.73
2017-11-12T15:49:29.635Z,8.7
2017-11-12T15:50:10.201Z,8.74
2017-11-12T15:50:50.862Z,8.79
2017-11-12T15:51:31.407Z,8.76
2017-11-12T15:52:12.144Z,8.74
2017-11-12T15:52:52.790Z,8.68
2017-11-12T15:53:33.300Z,8.68
2017-11-12T15:54:14.010Z,8.66
2017-11-12T15:54:54.645Z,8.76
2017-11-12T15:55:35.124Z,8.89
2017-11-12T15:56:15.665Z,8.63
2017-11-12T15:56:56.166Z,8.56
2017-11-12T15:57:36.846Z,8.68
2017-11-12T15:58:17.331Z,8.59
2017-11-12T15:58:58.010Z,8.65
2017-11-12T15:59:38.596Z,8.58
2017-11-12T16:00:19.179Z,8.59
2017-11-12T16:00:59.999Z,8.59
2017-11-12T16:01:40.661Z,8.56
2017-11-12T16:02:21.143Z,8.65
2017-11-12T16:03:01.697Z,8.79
2017-11-12T16:03:42.377Z,8.61
2017-11-12T16:04:23.162Z,8.58
2017-11-12T16:05:03.900Z,8.62
2017-11-12T16:05:45.010Z,8.5
2017-11-12T16:06:25.611Z,8.65
2017-11-12T16:07:06.264Z,8.44
2017-11-12T16:07:46.802Z,8.52
2017-11-12T16:08:27.410Z,8.52
2017-11-12T16:09:08.194Z,8.48
2017-11-12T16:09:48.620Z,8.38
2017-11-12T16:10:29.305Z,8.4
2017-11-12T16:11:10.210Z,8.48
2017-11-12T16:11:51.037Z,8.52
2017-11-12T16:12:31.586Z,8.61
2017-11-12T16:13:12.136Z,8.59
2017-11-12T16:13:52.874Z,8.7
2017-11-12T16:14:33.671Z,8.47
2017-11-12T16:15:14.730Z,8.62
2017-11-12T16:15:55.279Z,8.61
2017-11-12T16:16:36.193Z,8.71
2017-11-12T16:17:16.951Z,8.63
2017-11-12T16:17:57.376Z,8.59
2017-11-12T16:18:38.057Z,8.65
2017-11-12T16:19:18.904Z,8.59
2017-11-12T16:19:59.365Z,8.76
2017-11-12T16:20:39.977Z,8.7
2017-11-12T16:21:21.603Z,8.65
2017-11-12T16:22:02.348Z,8.7